Time;durP1;ratioP1;P1;durP2;ratioP2;P2;SDS_P1;SDS_P2;PMS_P1;PMS_P2;Temp;Humidity;BMP_temperature;BMP_pressure;BME280_temperature;BME280_humidity;BME280_pressure;Samples;Min_cycle;Max_cycle;Signal;HPM_P1;HPM_P2
2022/06/30 00:00:44;;;;;;;5.10;3.60;;;;;;;25.16;44.65;99334.44;5030186;28;20029;-85
2022/06/30 00:03:10;;;;;;;7.70;3.72;;;;;;;24.55;44.95;99246.41;5030186;28;20108;-85
2022/06/30 00:05:35;;;;;;;5.60;3.70;;;;;;;24.52;44.80;99255.03;5030311;28;20112;-85
2022/06/30 00:08:02;;;;;;;6.80;3.90;;;;;;;24.48;44.93;99256.66;5030193;28;20018;-85
2022/06/30 00:10:27;;;;;;;5.75;4.03;;;;;;;24.47;45.10;99240.75;5031780;28;20053;-85
2022/06/30 00:12:53;;;;;;;5.72;3.75;;;;;;;23.84;45.08;99149.50;5031636;28;20493;-85
2022/06/30 00:15:20;;;;;;;4.47;3.58;;;;;;;24.62;44.96;99273.09;5030432;28;20029;-85
2022/06/30 00:17:45;;;;;;;5.82;4.07;;;;;;;24.69;44.91;99265.50;5030338;28;20560;-85
2022/06/30 00:20:11;;;;;;;5.35;3.40;;;;;;;24.59;44.94;99247.47;5031716;28;20034;-85
2022/06/30 00:22:36;;;;;;;6.75;4.03;;;;;;;24.85;45.23;99304.06;5030236;28;20068;-85
2022/06/30 00:25:03;;;;;;;5.68;3.78;;;;;;;24.74;45.01;99280.88;5031753;28;20509;-86
2022/06/30 00:27:28;;;;;;;4.95;3.83;;;;;;;25.06;44.96;99332.59;5030689;28;20026;-85
2022/06/30 00:29:54;;;;;;;6.45;4.07;;;;;;;24.99;45.04;99332.91;5031483;28;20029;-85
2022/06/30 00:32:19;;;;;;;3.90;3.60;;;;;;;24.79;45.25;99307.84;5031705;28;20033;-85
2022/06/30 00:34:44;;;;;;;4.88;4.05;;;;;;;24.61;45.37;99276.88;5031737;28;20112;-85
2022/06/30 00:37:10;;;;;;;6.07;4.20;;;;;;;24.53;45.23;99280.16;5030065;28;20021;-85
2022/06/30 00:39:35;;;;;;;8.65;4.38;;;;;;;23.10;45.50;99048.56;5031776;28;20544;-85
2022/06/30 00:42:02;;;;;;;5.28;4.15;;;;;;;24.16;45.36;99240.81;5030339;28;20025;-85
2022/06/30 00:44:27;;;;;;;5.47;3.70;;;;;;;24.90;45.27;99347.25;5030144;28;20041;-86
2022/06/30 00:46:53;;;;;;;5.18;3.97;;;;;;;24.62;45.90;99309.00;5030026;28;20017;-85
2022/06/30 00:49:20;;;;;;;6.00;4.10;;;;;;;24.90;45.33;99339.13;5031250;28;20391;-85
2022/06/30 00:51:46;;;;;;;6.88;4.20;;;;;;;24.47;45.58;99279.34;5029981;28;20053;-86
2022/06/30 00:54:13;;;;;;;5.30;4.00;;;;;;;24.75;45.41;99313.00;5029782;28;20076;-85
2022/06/30 00:56:42;;;;;;;4.90;4.40;;;;;;;24.15;45.92;99222.22;5030670;28;20049;-85
2022/06/30 00:59:08;;;;;;;6.47;4.28;;;;;;;24.59;45.63;99292.56;5030965;28;20056;-85
2022/06/30 01:01:36;;;;;;;5.50;4.10;;;;;;;24.82;45.42;99324.31;5029878;28;20056;-85
2022/06/30 01:04:01;;;;;;;7.45;4.05;;;;;;;24.50;45.49;99272.59;5031059;28;20067;-85
2022/06/30 01:06:28;;;;;;;5.18;4.40;;;;;;;24.74;45.47;99340.28;5031414;28;20049;-86
2022/06/30 01:08:53;;;;;;;6.15;4.28;;;;;;;24.73;45.82;99311.66;5031106;28;20028;-85
2022/06/30 01:14:03;;;;;;;4.43;4.00;;;;;;;24.63;45.89;99309.81;5031739;28;20525;-85
2022/06/30 01:16:29;;;;;;;5.65;4.30;;;;;;;24.63;46.03;99323.31;5029940;28;20029;-85
2022/06/30 01:18:55;;;;;;;7.57;3.90;;;;;;;23.21;45.98;99099.72;5029776;28;20485;-85
2022/06/30 01:21:20;;;;;;;8.27;4.43;;;;;;;24.16;45.96;99257.00;5033112;28;20071;-85
2022/06/30 01:23:46;;;;;;;7.28;4.32;;;;;;;23.67;46.09;99214.47;5021480;28;20013;-85
2022/06/30 01:26:11;;;;;;;6.10;4.78;;;;;;;24.24;46.36;99282.63;5027390;28;20025;-85
2022/06/30 01:28:37;;;;;;;5.43;3.97;;;;;;;23.80;46.36;99239.28;5019411;28;20104;-85
2022/06/30 01:31:02;;;;;;;4.95;4.40;;;;;;;24.15;46.43;99292.34;5015584;28;20026;-85
2022/06/30 01:33:28;;;;;;;4.93;4.32;;;;;;;23.60;46.19;99224.72;5013684;28;20018;-85
2022/06/30 01:35:55;;;;;;;10.20;4.97;;;;;;;24.12;46.45;99304.50;5013887;28;20113;-85
2022/06/30 01:38:21;;;;;;;9.07;4.95;;;;;;;23.90;46.39;99280.53;5013724;28;20060;-85
2022/06/30 01:40:46;;;;;;;6.00;4.53;;;;;;;23.71;46.33;99241.69;5013475;28;20018;-85
2022/06/30 01:43:13;;;;;;;5.57;4.10;;;;;;;23.83;46.41;99276.50;5013561;28;20085;-86
2022/06/30 01:45:40;;;;;;;5.10;4.35;;;;;;;23.90;46.30;99280.53;5013099;28;20026;-85
2022/06/30 01:48:06;;;;;;;6.05;4.50;;;;;;;24.44;46.32;99343.84;5014042;28;20450;-86
2022/06/30 01:50:32;;;;;;;8.25;4.47;;;;;;;24.44;46.17;99341.97;5013073;28;20025;-85
2022/06/30 01:52:59;;;;;;;6.07;4.55;;;;;;;24.19;46.14;99326.59;5012915;28;20104;-86
2022/06/30 01:55:25;;;;;;;7.15;4.65;;;;;;;24.38;46.40;99343.88;5012677;28;20076;-86
2022/06/30 01:57:51;;;;;;;10.07;4.82;;;;;;;23.12;46.16;99169.47;5014008;28;20030;-85
2022/06/30 02:00:20;;;;;;;6.55;4.50;;;;;;;24.21;46.21;99312.84;5014514;28;20116;-86
2022/06/30 02:02:46;;;;;;;7.50;4.45;;;;;;;23.38;46.30;99181.06;5014400;28;20088;-86
2022/06/30 02:05:12;;;;;;;9.38;4.80;;;;;;;23.61;46.08;99212.06;5013988;28;20033;-85
2022/06/30 02:07:39;;;;;;;6.32;4.10;;;;;;;23.67;46.17;99227.94;5014439;28;20054;-86
2022/06/30 02:10:06;;;;;;;8.35;4.53;;;;;;;24.01;46.43;99279.44;5012704;28;20773;-85
2022/06/30 02:12:47;;;;;;;5.60;4.10;;;;;;;24.12;46.49;99299.09;5013882;28;20030;-85
2022/06/30 02:15:32;;;;;;;7.68;4.60;;;;;;;23.98;46.53;99285.38;5013789;28;20494;-86
2022/06/30 02:17:58;;;;;;;6.10;4.32;;;;;;;23.64;46.52;99235.78;5013450;28;20498;-85
2022/06/30 02:20:24;;;;;;;7.45;4.32;;;;;;;23.83;46.75;99282.69;5013502;28;20513;-85
2022/06/30 02:22:54;;;;;;;7.95;3.95;;;;;;;24.13;46.56;99343.88;5012720;28;20018;-85
2022/06/30 02:25:21;;;;;;;4.70;3.97;;;;;;;24.07;46.78;99337.69;5012905;28;20052;-86
2022/06/30 02:27:47;;;;;;;7.90;4.38;;;;;;;23.95;46.98;99342.53;5013863;28;20025;-86
2022/06/30 02:30:13;;;;;;;6.55;4.50;;;;;;;23.29;47.14;99248.13;5013554;28;20026;-85
2022/06/30 02:32:38;;;;;;;4.85;4.43;;;;;;;23.89;47.19;99361.69;5012338;28;20387;-87
2022/06/30 02:35:05;;;;;;;9.38;4.93;;;;;;;23.91;47.27;99348.75;5012194;28;20084;-85
2022/06/30 02:37:30;;;;;;;4.78;4.25;;;;;;;23.75;47.36;99346.03;5013377;28;20026;-86
2022/06/30 02:39:55;;;;;;;5.00;4.50;;;;;;;23.65;47.41;99329.03;5013190;28;20083;-86
2022/06/30 02:42:22;;;;;;;4.90;4.43;;;;;;;23.70;47.54;99374.88;5027214;28;20048;-85
2022/06/30 02:44:47;;;;;;;6.43;4.13;;;;;;;23.18;47.63;99259.16;5022210;28;20030;-85
2022/06/30 02:47:12;;;;;;;5.85;4.20;;;;;;;22.91;47.66;99227.06;5012455;28;20028;-85
2022/06/30 02:49:39;;;;;;;7.95;4.60;;;;;;;23.17;47.34;99273.72;5014860;28;20022;-86
2022/06/30 02:52:05;;;;;;;6.95;4.45;;;;;;;23.22;47.65;99276.41;5012919;28;20026;-85
2022/06/30 02:54:31;;;;;;;8.57;4.28;;;;;;;22.67;47.68;99187.13;5012515;28;20040;-85
2022/06/30 02:56:56;;;;;;;7.90;4.35;;;;;;;23.51;47.85;99339.50;5013657;28;20046;-85
2022/06/30 02:59:22;;;;;;;9.07;4.05;;;;;;;23.01;47.69;99252.13;5013557;28;20025;-86
2022/06/30 03:01:47;;;;;;;5.35;4.18;;;;;;;23.35;47.55;99300.94;5012105;28;20461;-86
2022/06/30 03:04:13;;;;;;;5.97;4.63;;;;;;;23.51;47.47;99330.59;5011923;28;20034;-88
2022/06/30 03:06:38;;;;;;;7.55;4.50;;;;;;;23.29;47.72;99293.13;5011594;28;20163;-85
2022/06/30 03:09:04;;;;;;;6.68;4.90;;;;;;;23.74;47.73;99363.28;5012865;28;20018;-85
2022/06/30 03:11:30;;;;;;;5.38;4.60;;;;;;;23.25;47.58;99329.75;5011509;28;20018;-85
2022/06/30 03:13:56;;;;;;;5.55;4.70;;;;;;;23.03;47.73;99246.47;5011801;28;20482;-86
2022/06/30 03:16:22;;;;;;;5.68;4.38;;;;;;;23.32;47.76;99277.25;5011586;28;20018;-85
2022/06/30 03:18:47;;;;;;;5.70;4.68;;;;;;;23.89;47.62;99354.41;5013073;28;20033;-85
2022/06/30 03:21:13;;;;;;;5.18;4.13;;;;;;;23.55;47.57;99300.19;5011457;28;20028;-85
2022/06/30 03:23:39;;;;;;;4.75;4.20;;;;;;;23.94;47.25;99356.31;5011828;28;20028;-85
2022/06/30 03:26:05;;;;;;;9.85;4.57;;;;;;;23.93;47.36;99355.50;5012507;28;20026;-85
2022/06/30 03:28:31;;;;;;;6.72;4.97;;;;;;;23.93;47.55;99362.78;5011104;28;20081;-85
2022/06/30 03:30:56;;;;;;;7.88;4.75;;;;;;;23.63;47.44;99320.41;5010451;28;20029;-85
2022/06/30 03:33:22;;;;;;;7.18;4.40;;;;;;;23.85;47.68;99349.81;5012269;28;20026;-85
2022/06/30 03:35:48;;;;;;;7.60;4.78;;;;;;;23.26;47.43;99286.38;5012293;28;20464;-85
2022/06/30 03:38:14;;;;;;;6.10;4.13;;;;;;;23.54;47.45;99311.22;5010758;28;20030;-85
2022/06/30 03:40:40;;;;;;;7.50;4.97;;;;;;;23.97;47.59;99358.47;5010945;28;20430;-85
2022/06/30 03:43:06;;;;;;;8.93;5.28;;;;;;;23.65;47.55;99326.34;5012034;28;20105;-85
2022/06/30 03:45:32;;;;;;;9.43;5.18;;;;;;;23.68;47.66;99325.81;5011182;28;20512;-85
2022/06/30 03:48:00;;;;;;;7.50;5.03;;;;;;;22.78;47.49;99196.84;5012264;28;20075;-85
2022/06/30 03:50:26;;;;;;;6.07;5.18;;;;;;;23.72;47.71;99341.16;5011024;28;20025;-86
2022/06/30 03:52:52;;;;;;;7.13;4.50;;;;;;;23.94;47.50;99373.28;5012115;28;20025;-85
2022/06/30 03:55:18;;;;;;;7.20;5.13;;;;;;;23.43;47.52;99297.72;5010586;28;20486;-85
2022/06/30 03:57:43;;;;;;;8.65;5.13;;;;;;;23.34;47.61;99298.53;5011776;28;20076;-85
2022/06/30 04:00:09;;;;;;;9.50;5.38;;;;;;;23.71;47.55;99317.97;5010434;28;20109;-85
2022/06/30 04:02:35;;;;;;;7.47;5.22;;;;;;;23.75;47.63;99329.03;5010850;28;20524;-85
2022/06/30 04:05:01;;;;;;;8.82;5.40;;;;;;;23.48;47.88;99315.78;5012159;28;20053;-85
2022/06/30 04:07:26;;;;;;;7.53;5.57;;;;;;;23.75;47.89;99359.50;5010573;28;20018;-85
2022/06/30 04:09:51;;;;;;;8.63;5.80;;;;;;;24.11;47.90;99394.59;5011731;28;20022;-85
2022/06/30 04:12:17;;;;;;;6.93;5.07;;;;;;;23.41;48.04;99272.13;5010807;28;20022;-85
2022/06/30 04:14:42;;;;;;;7.00;5.32;;;;;;;23.66;47.83;99306.41;5011971;28;20104;-85
2022/06/30 04:17:09;;;;;;;10.68;5.75;;;;;;;24.24;47.71;99377.06;5010752;28;20081;-85
2022/06/30 04:19:35;;;;;;;13.05;5.68;;;;;;;24.23;47.60;99373.53;5010798;28;20026;-85
2022/06/30 04:22:00;;;;;;;6.60;5.32;;;;;;;24.41;47.48;99385.69;5011944;28;20102;-85
2022/06/30 04:24:25;;;;;;;10.27;5.60;;;;;;;24.18;47.64;99333.09;5010602;28;20100;-85
2022/06/30 04:26:51;;;;;;;6.60;5.47;;;;;;;24.47;47.61;99367.59;5010484;28;20101;-85
2022/06/30 04:29:17;;;;;;;6.50;5.28;;;;;;;24.54;47.24;99387.84;5011989;28;20022;-86
2022/06/30 04:34:26;;;;;;;11.25;5.88;;;;;;;24.05;47.18;99294.00;5022591;28;20028;-85
2022/06/30 04:36:51;;;;;;;6.70;5.03;;;;;;;24.21;47.18;99312.84;5027521;28;20097;-86
2022/06/30 04:39:17;;;;;;;6.97;6.20;;;;;;;24.60;47.14;99351.66;5012950;28;20052;-85
2022/06/30 04:41:42;;;;;;;7.97;5.53;;;;;;;24.25;47.20;99295.84;5010683;28;20560;-85
2022/06/30 04:44:08;;;;;;;7.07;4.88;;;;;;;24.47;46.89;99332.50;5010913;28;20042;-85
2022/06/30 04:46:33;;;;;;;5.97;5.10;;;;;;;24.82;47.14;99386.44;5012042;28;20025;-85
2022/06/30 04:48:58;;;;;;;8.20;5.63;;;;;;;24.80;47.20;99393.19;5010686;28;20030;-85
2022/06/30 04:51:24;;;;;;;7.00;5.03;;;;;;;24.97;46.82;99409.88;5012090;28;20022;-85
2022/06/30 04:53:51;;;;;;;12.82;5.43;;;;;;;24.33;46.59;99281.00;5012120;28;20054;-85
2022/06/30 04:56:17;;;;;;;7.97;4.95;;;;;;;24.94;46.97;99378.00;5013697;28;20046;-85
2022/06/30 04:58:43;;;;;;;6.68;5.00;;;;;;;24.80;46.52;99344.59;5015273;28;20414;-85
2022/06/30 05:01:10;;;;;;;7.18;5.03;;;;;;;25.18;46.60;99379.00;5015284;28;20036;-85
2022/06/30 05:03:35;;;;;;;8.77;5.00;;;;;;;24.69;46.46;99308.72;5014133;28;20030;-85
2022/06/30 05:06:01;;;;;;;7.50;5.18;;;;;;;25.25;46.91;99389.53;5014302;28;20088;-85
2022/06/30 05:08:27;;;;;;;7.32;5.22;;;;;;;24.94;47.02;99357.22;5013850;28;20014;-87
2022/06/30 05:10:52;;;;;;;7.30;5.25;;;;;;;25.23;47.39;99395.19;5015013;28;20028;-87
2022/06/30 05:13:18;;;;;;;5.90;5.28;;;;;;;25.09;47.36;99369.06;5013979;28;20022;-87
2022/06/30 05:15:47;;;;;;;9.30;5.90;;;;;;;24.56;47.38;99268.81;5013760;28;20022;-85
2022/06/30 05:18:13;;;;;;;7.82;5.20;;;;;;;25.25;47.09;99378.72;5015253;28;20400;-85
2022/06/30 05:20:40;;;;;;;6.15;4.50;;;;;;;25.33;46.51;99392.47;5013928;28;20026;-85
2022/06/30 05:23:06;;;;;;;6.78;5.32;;;;;;;24.84;46.36;99311.34;5013838;28;20487;-85
2022/06/30 05:28:16;;;;;;;7.35;4.45;;;;;;;24.53;45.81;99264.78;5034931;28;20525;-85
2022/06/30 05:30:41;;;;;;;8.00;4.65;;;;;;;25.18;45.90;99356.59;5032847;28;20037;-85
2022/06/30 05:33:07;;;;;;;9.93;5.00;;;;;;;25.36;45.61;99385.72;5035001;28;20056;-84
2022/06/30 05:35:33;;;;;;;7.80;5.90;;;;;;;25.52;45.65;99411.56;5034882;28;20032;-85
2022/06/30 05:37:58;;;;;;;6.53;5.57;;;;;;;25.38;45.82;99371.91;5033747;28;20029;-85
2022/06/30 05:40:24;;;;;;;9.18;5.22;;;;;;;25.46;45.80;99406.47;5027981;28;20029;-84
2022/06/30 05:42:49;;;;;;;11.43;5.50;;;;;;;25.46;45.41;99404.56;5028294;28;20022;-85
2022/06/30 05:45:15;;;;;;;8.57;4.85;;;;;;;25.25;45.74;99344.38;5033313;28;20026;-88
2022/06/30 05:47:51;;;;;;;6.93;6.07;;;;;;;24.90;45.89;99296.72;5016349;28;20022;-85
2022/06/30 05:50:21;;;;;;;7.47;5.10;;;;;;;24.90;45.43;99306.72;5022678;28;20057;-85
2022/06/30 05:52:47;;;;;;;6.60;5.68;;;;;;;25.22;45.58;99323.31;5021403;28;20049;-86
2022/06/30 05:55:13;;;;;;;5.63;5.13;;;;;;;25.50;45.52;99385.91;5032234;28;20081;-86
2022/06/30 05:58:10;;;;;;;6.88;5.55;;;;;;;25.87;45.70;99423.28;5036262;28;20026;-85
2022/06/30 06:00:35;;;;;;;7.18;6.07;;;;;;;25.68;45.75;99393.38;5045848;28;20510;-86
2022/06/30 06:03:01;;;;;;;8.35;6.95;;;;;;;25.95;46.04;99433.50;5026921;28;20025;-87
2022/06/30 06:05:26;;;;;;;6.57;5.82;;;;;;;25.67;46.16;99396.38;5016462;28;20022;-86
2022/06/30 06:07:52;;;;;;;7.82;5.68;;;;;;;25.61;46.06;99371.22;5029657;28;20017;-86
2022/06/30 06:10:18;;;;;;;6.18;5.60;;;;;;;25.17;46.05;99301.75;5053670;28;20025;-85
2022/06/30 06:12:44;;;;;;;7.75;5.65;;;;;;;26.11;45.98;99436.91;5029388;28;20022;-85
2022/06/30 06:15:14;;;;;;;7.25;6.13;;;;;;;25.45;46.21;99315.66;5032630;28;20024;-86
2022/06/30 06:17:44;;;;;;;7.70;6.10;;;;;;;26.24;46.20;99437.09;5025326;28;20049;-86
2022/06/30 06:20:12;;;;;;;7.85;7.03;;;;;;;26.02;45.98;99393.44;5023795;28;20033;-86
2022/06/30 06:22:39;;;;;;;8.20;5.63;;;;;;;26.24;45.58;99415.44;5033155;28;20057;-86
2022/06/30 06:25:04;;;;;;;6.55;5.80;;;;;;;25.85;45.33;99355.94;5032052;28;20410;-86
2022/06/30 06:27:30;;;;;;;7.10;5.65;;;;;;;26.15;45.13;99440.69;5033391;28;20017;-85
2022/06/30 06:29:55;;;;;;;8.45;5.75;;;;;;;25.75;44.88;99330.88;5025246;28;20100;-86
2022/06/30 06:32:22;;;;;;;7.00;5.43;;;;;;;25.69;45.08;99300.34;5014115;28;20056;-85
2022/06/30 06:34:48;;;;;;;7.57;5.50;;;;;;;26.21;45.14;99396.25;5020786;28;20021;-86
2022/06/30 06:37:13;;;;;;;6.93;5.60;;;;;;;26.03;44.95;99348.25;5022170;28;20053;-86
2022/06/30 06:39:39;;;;;;;6.60;5.88;;;;;;;25.81;44.58;99294.56;5024955;28;20026;-85
2022/06/30 06:42:04;;;;;;;9.55;6.20;;;;;;;26.04;44.62;99347.94;5031774;28;20416;-86
2022/06/30 06:44:30;;;;;;;10.73;7.22;;;;;;;26.47;44.08;99392.22;5031660;28;20031;-86
2022/06/30 06:46:55;;;;;;;5.32;4.82;;;;;;;25.58;43.69;99252.81;5031685;28;20485;-85
2022/06/30 06:49:20;;;;;;;9.32;6.07;;;;;;;25.92;43.33;99321.25;5032755;28;20486;-85
2022/06/30 06:51:46;;;;;;;9.40;5.53;;;;;;;26.34;43.09;99387.50;5028832;28;20496;-86
2022/06/30 06:54:11;;;;;;;7.00;5.85;;;;;;;26.33;42.66;99345.28;5018249;28;20022;-86
2022/06/30 06:56:37;;;;;;;7.10;5.25;;;;;;;26.70;42.72;99392.53;5018941;28;20053;-86
2022/06/30 06:59:02;;;;;;;9.75;6.35;;;;;;;26.08;43.08;99303.00;5014809;28;20038;-86
2022/06/30 07:01:28;;;;;;;7.18;5.60;;;;;;;26.90;42.84;99414.81;5014378;28;20083;-85
2022/06/30 07:03:53;;;;;;;6.65;5.70;;;;;;;26.24;42.68;99303.66;5015098;28;20026;-86
2022/06/30 07:06:19;;;;;;;17.85;9.98;;;;;;;26.79;42.83;99396.25;5028502;28;20100;-87
2022/06/30 07:08:44;;;;;;;9.27;7.65;;;;;;;26.56;42.76;99335.56;5012410;28;20018;-86
2022/06/30 07:11:10;;;;;;;7.47;5.90;;;;;;;26.54;42.68;99318.78;5028300;28;20029;-86
2022/06/30 07:13:35;;;;;;;17.15;15.40;;;;;;;26.96;42.71;99374.91;5019548;28;20490;-85
2022/06/30 07:16:02;;;;;;;11.23;9.98;;;;;;;27.22;42.65;99402.53;5013495;28;20169;-86
2022/06/30 07:18:27;;;;;;;10.68;7.63;;;;;;;27.17;42.65;99384.44;5012922;28;20018;-86
2022/06/30 07:20:53;;;;;;;9.00;8.10;;;;;;;27.39;42.34;99410.19;5029961;28;20029;-86
2022/06/30 07:23:19;;;;;;;8.80;5.70;;;;;;;27.26;41.97;99386.50;5031922;28;20108;-87
2022/06/30 07:25:44;;;;;;;8.10;5.22;;;;;;;26.74;40.92;99287.94;5023558;28;20021;-87
2022/06/30 07:28:10;;;;;;;7.28;5.70;;;;;;;27.37;41.20;99388.78;5016831;28;20017;-87
2022/06/30 07:30:35;;;;;;;7.93;5.40;;;;;;;27.15;41.13;99356.81;5029791;28;20024;-86
2022/06/30 07:33:00;;;;;;;8.50;5.40;;;;;;;27.19;40.63;99338.06;5014129;28;20391;-85
2022/06/30 07:35:26;;;;;;;9.25;5.95;;;;;;;27.74;40.91;99419.78;5024941;28;20029;-86
2022/06/30 07:37:51;;;;;;;8.88;6.72;;;;;;;27.65;40.96;99394.41;5013895;28;20026;-86
2022/06/30 07:40:17;;;;;;;7.72;5.30;;;;;;;27.94;40.38;99414.03;5013372;28;20522;-86
2022/06/30 07:42:43;;;;;;;10.38;6.20;;;;;;;26.79;40.13;99218.28;5012085;28;20018;-86
2022/06/30 07:45:09;;;;;;;6.57;4.50;;;;;;;27.98;39.90;99414.25;5019131;28;20395;-86
2022/06/30 07:47:34;;;;;;;9.10;4.93;;;;;;;27.97;39.62;99388.22;5021632;28;20028;-87
2022/06/30 07:50:00;;;;;;;7.90;4.60;;;;;;;28.18;38.98;99401.16;5012457;28;20481;-86
2022/06/30 07:52:26;;;;;;;7.55;4.65;;;;;;;27.77;39.37;99348.66;5014074;28;20501;-85
2022/06/30 07:54:52;;;;;;;9.80;4.80;;;;;;;27.41;39.13;99278.63;5014126;28;20088;-87
2022/06/30 07:57:20;;;;;;;7.07;4.40;;;;;;;27.02;39.08;99211.19;5017247;28;20161;-86
2022/06/30 07:59:46;;;;;;;9.75;6.53;;;;;;;27.82;39.07;99327.66;5013933;28;20418;-85
2022/06/30 08:02:12;;;;;;;9.35;5.32;;;;;;;28.31;39.13;99393.41;5024749;28;20025;-86
2022/06/30 08:04:38;;;;;;;8.68;5.15;;;;;;;28.34;38.92;99392.81;5011096;28;20057;-86
2022/06/30 08:07:04;;;;;;;8.90;5.45;;;;;;;28.26;38.95;99372.56;5011664;28;20098;-86
2022/06/30 08:09:30;;;;;;;10.10;8.25;;;;;;;28.10;39.17;99335.88;5011051;28;20037;-86
2022/06/30 08:11:56;;;;;;;10.52;7.00;;;;;;;28.55;38.48;99387.81;5020374;28;20406;-86
2022/06/30 08:14:22;;;;;;;14.07;7.35;;;;;;;27.73;38.81;99264.34;5040944;28;20039;-86
2022/06/30 08:16:48;;;;;;;9.57;6.43;;;;;;;28.63;38.69;99381.66;5019631;28;20026;-86
2022/06/30 08:19:14;;;;;;;9.77;5.68;;;;;;;29.02;38.27;99419.28;5014634;28;20048;-86
2022/06/30 08:21:39;;;;;;;9.25;5.43;;;;;;;28.86;37.98;99388.84;5026946;28;20053;-86
2022/06/30 08:24:05;;;;;;;13.35;6.22;;;;;;;29.02;37.85;99389.38;5011328;28;20123;-86
2022/06/30 08:26:31;;;;;;;10.13;5.10;;;;;;;28.50;38.21;99303.69;5011691;28;20026;-89
2022/06/30 08:28:57;;;;;;;7.40;4.70;;;;;;;29.26;37.70;99414.41;5033285;28;20017;-90
2022/06/30 08:31:27;;;;;;;6.32;4.60;;;;;;;28.64;37.75;99299.88;5031602;28;20028;-89
2022/06/30 08:33:54;;;;;;;7.10;5.40;;;;;;;29.40;38.02;99417.91;5032313;28;20028;-91
2022/06/30 08:36:19;;;;;;;9.02;6.10;;;;;;;29.46;37.90;99401.53;5037365;28;20032;-90
2022/06/30 08:38:45;;;;;;;8.10;5.55;;;;;;;29.60;37.68;99419.41;5039128;28;20018;-90
2022/06/30 08:43:58;;;;;;;11.10;5.60;;;;;;;29.47;37.16;99360.41;5041391;28;20087;-92
2022/06/30 08:46:26;;;;;;;10.07;5.53;;;;;;;29.70;36.94;99388.44;5031545;28;20021;-91
2022/06/30 08:48:52;;;;;;;9.07;6.22;;;;;;;29.62;37.27;99343.72;5018020;28;20083;-91
2022/06/30 08:51:21;;;;;;;10.18;5.60;;;;;;;30.19;36.54;99422.97;5024496;28;20486;-91
2022/06/30 08:53:57;;;;;;;5.32;4.32;;;;;;;30.23;36.01;99415.78;5039666;28;20022;-90
2022/06/30 08:56:24;;;;;;;6.60;4.47;;;;;;;30.12;35.68;99379.03;5033838;28;20483;-92
2022/06/30 08:58:51;;;;;;;8.15;6.85;;;;;;;30.35;36.00;99386.06;5028039;28;20108;-91
2022/06/30 09:01:18;;;;;;;7.07;4.68;;;;;;;30.64;36.09;99409.34;5044546;28;20033;-90
2022/06/30 09:03:44;;;;;;;8.18;4.38;;;;;;;29.83;35.69;99269.78;5053282;28;20017;-91
2022/06/30 09:06:10;;;;;;;6.35;4.40;;;;;;;30.32;35.33;99328.69;5040262;28;20029;-91
2022/06/30 09:08:35;;;;;;;6.35;5.10;;;;;;;30.48;35.08;99335.34;5037184;28;20575;-91
2022/06/30 09:11:01;;;;;;;14.52;4.38;;;;;;;30.72;34.37;99367.69;5036137;28;20104;-90
2022/06/30 09:13:39;;;;;;;6.43;4.55;;;;;;;31.10;34.06;99389.75;5036760;28;20421;-91
2022/06/30 09:16:05;;;;;;;10.38;5.55;;;;;;;30.36;34.10;99262.34;5020910;28;20111;-90
2022/06/30 09:18:30;;;;;;;6.93;4.65;;;;;;;30.95;33.98;99341.13;5023187;28;20057;-90
2022/06/30 09:20:57;;;;;;;6.40;3.90;;;;;;;31.55;33.64;99404.00;5025157;28;20025;-90
2022/06/30 09:23:26;;;;;;;6.63;3.92;;;;;;;31.66;33.52;99400.97;5016276;28;20032;-91
2022/06/30 09:25:54;;;;;;;7.82;4.75;;;;;;;31.02;33.61;99311.47;5020436;28;20033;-90
2022/06/30 09:28:41;;;;;;;8.10;4.85;;;;;;;31.92;33.95;99385.38;5017536;28;20018;-91
2022/06/30 09:31:13;;;;;;;6.93;4.32;;;;;;;32.06;33.32;99390.69;5020484;28;20436;-91
2022/06/30 09:33:41;;;;;;;;;;;;;;;32.14;33.44;99390.69;5024598;28;20026;-91
2022/06/30 09:36:19;;;;;;;6.43;3.35;;;;;;;32.38;32.37;99383.91;5021050;28;19917;-90
2022/06/30 09:39:09;;;;;;;5.65;4.10;;;;;;;32.21;32.55;99322.69;5016164;28;20096;-89
2022/06/30 09:41:39;;;;;;;9.17;3.90;;;;;;;32.80;32.11;99393.91;5012300;28;20033;-90
2022/06/30 09:44:20;;;;;;;5.80;2.85;;;;;;;32.64;31.45;99340.06;5022695;28;20285;-91
2022/06/30 09:47:10;;;;;;;12.57;9.85;;;;;;;32.74;30.86;99324.13;5032290;28;20026;-91
2022/06/30 09:49:41;;;;;;;6.70;3.88;;;;;;;33.20;30.73;99377.13;5032337;28;20049;-91
2022/06/30 09:52:24;;;;;;;6.07;3.67;;;;;;;32.72;30.22;99309.97;5032330;28;20026;-91
2022/06/30 09:55:04;;;;;;;5.60;3.22;;;;;;;33.42;29.47;99374.09;5066405;28;20053;-90
2022/06/30 09:57:43;;;;;;;7.32;4.20;;;;;;;33.73;29.30;99383.84;5059213;28;20116;-90
2022/06/30 10:00:10;;;;;;;5.10;3.47;;;;;;;33.77;29.22;99371.91;5057184;28;20031;-90
2022/06/30 10:02:39;;;;;;;5.30;4.00;;;;;;;33.98;29.16;99380.09;5063750;28;20079;-90
2022/06/30 10:05:06;;;;;;;6.53;4.63;;;;;;;34.09;28.82;99375.78;5064717;28;20024;-91
2022/06/30 10:07:35;;;;;;;4.03;2.90;;;;;;;34.17;28.96;99376.03;5058267;28;20028;-90
2022/06/30 10:10:04;;;;;;;6.63;4.20;;;;;;;33.27;28.75;99243.31;5056209;28;20034;-91
2022/06/30 10:12:31;;;;;;;9.02;4.40;;;;;;;34.15;29.03;99370.91;5053980;28;20037;-90
2022/06/30 10:14:57;;;;;;;6.40;3.30;;;;;;;34.05;29.14;99320.06;5035469;28;20029;-90
2022/06/30 10:17:28;;;;;;;6.47;3.65;;;;;;;34.18;29.10;99300.91;5035881;28;20690;-91
2022/06/30 10:19:55;;;;;;;7.13;3.42;;;;;;;34.90;28.36;99365.22;5069598;28;20059;-89
2022/06/30 10:22:22;;;;;;;8.20;3.50;;;;;;;34.69;28.28;99337.88;5067496;28;20025;-91
2022/06/30 10:24:49;;;;;;;7.45;4.28;;;;;;;34.28;28.94;99260.19;5052565;28;20029;-90
2022/06/30 10:27:15;;;;;;;6.63;3.40;;;;;;;34.83;28.46;99327.41;5054518;28;20023;-90
2022/06/30 10:30:06;;;;;;;8.43;4.25;;;;;;;35.29;28.02;99355.47;5047090;28;20029;-90
2022/06/30 10:32:47;;;;;;;;;;;;;;;35.33;27.84;99359.94;5045718;28;20022;-91
2022/06/30 10:35:24;;;;;;;7.78;3.70;;;;;;;35.47;27.82;99358.75;5046788;28;19919;-90
2022/06/30 10:38:01;;;;;;;8.75;3.42;;;;;;;35.63;27.37;99356.88;5036334;28;20478;-89
2022/06/30 10:40:53;;;;;;;7.10;2.95;;;;;;;35.71;26.87;99361.44;5045702;28;20577;-90
2022/06/30 10:43:19;;;;;;;9.77;4.43;;;;;;;35.45;26.93;99308.88;5055425;28;20025;-90
2022/06/30 10:45:53;;;;;;;4.47;3.60;;;;;;;35.91;26.74;99351.44;5054537;28;20027;-90
2022/06/30 10:48:19;;;;;;;5.78;4.25;;;;;;;36.14;26.83;99355.19;5053670;28;20021;-90
2022/06/30 10:50:45;;;;;;;6.60;3.20;;;;;;;35.95;26.35;99311.09;5054483;28;20094;-90
2022/06/30 10:53:33;;;;;;;7.57;3.67;;;;;;;36.08;26.43;99303.56;5041539;28;20036;-89
2022/06/30 10:55:59;;;;;;;6.78;4.10;;;;;;;35.78;26.31;99260.00;5033205;28;20060;-89
2022/06/30 10:58:24;;;;;;;11.35;5.43;;;;;;;36.44;26.09;99339.13;5032846;28;20029;-89
2022/06/30 11:00:56;;;;;;;8.02;4.20;;;;;;;36.49;25.79;99336.09;5033754;28;20036;-90
2022/06/30 11:03:34;;;;;;;7.40;4.63;;;;;;;36.72;25.85;99336.25;5051593;28;20037;-89
2022/06/30 11:06:05;;;;;;;7.25;3.88;;;;;;;36.93;25.69;99327.72;5052701;28;20024;-90
2022/06/30 11:08:46;;;;;;;4.60;2.70;;;;;;;37.11;25.23;99328.91;5050464;28;20028;-88
2022/06/30 11:11:24;;;;;;;8.07;3.25;;;;;;;36.92;24.58;99260.88;5048510;28;20036;-89
2022/06/30 11:13:56;;;;;;;5.85;3.17;;;;;;;37.45;24.64;99318.25;5051135;28;20123;-90
2022/06/30 11:16:22;;;;;;;8.57;3.80;;;;;;;37.19;24.79;99266.56;5053233;28;20126;-90
2022/06/30 11:18:48;;;;;;;5.43;2.60;;;;;;;37.64;24.82;99320.19;5050226;28;20033;-89
2022/06/30 11:21:14;;;;;;;6.43;2.85;;;;;;;37.24;24.33;99251.72;5036027;28;20409;-89
2022/06/30 11:23:42;;;;;;;4.68;2.40;;;;;;;36.68;23.89;99120.78;5033140;28;20485;-90
2022/06/30 11:28:53;;;;;;;6.03;2.83;;;;;;;38.00;23.90;99305.19;5057132;28;20575;-90
2022/06/30 11:31:30;;;;;;;6.07;4.50;;;;;;;37.91;23.54;99282.56;5034052;28;20045;-89
2022/06/30 11:34:00;;;;;;;7.25;3.00;;;;;;;38.04;23.64;99282.03;5035171;28;20126;-89
2022/06/30 11:36:33;;;;;;;5.20;2.83;;;;;;;37.44;23.33;99192.72;5034895;28;20025;-89
2022/06/30 11:39:17;;;;;;;9.13;4.03;;;;;;;38.18;23.58;99291.72;5038332;28;20093;-90
2022/06/30 11:41:56;;;;;;;6.20;3.05;;;;;;;37.84;23.40;99272.97;5058625;28;20044;-90
2022/06/30 11:44:26;;;;;;;7.00;2.55;;;;;;;37.98;23.28;99257.88;5066581;28;20024;-90
2022/06/30 11:46:53;;;;;;;3.95;3.10;;;;;;;38.17;22.86;99293.69;5049245;28;20052;-90
2022/06/30 11:49:20;;;;;;;4.95;2.97;;;;;;;38.19;23.10;99287.81;5048741;28;20036;-90